createdAt,value
2016-09-28T00:00:11.989Z,21.10
2016-09-28T00:01:11.073Z,21.10
2016-09-28T00:02:09.696Z,21.20
2016-09-28T00:03:11.332Z,21.20
2016-09-28T00:04:09.856Z,21.20
2016-09-28T00:05:12.214Z,21.20
2016-09-28T00:06:11.217Z,21.20
2016-09-28T00:07:11.205Z,21.20
2016-09-28T00:08:12.094Z,21.20
2016-09-28T00:09:08.907Z,21.20
2016-09-28T00:10:11.832Z,21.20
2016-09-28T00:11:09.736Z,21.20
2016-09-28T00:12:11.326Z,21.20
2016-09-28T00:13:12.276Z,21.20
2016-09-28T00:14:11.187Z,21.20
2016-09-28T00:15:12.899Z,21.20
2016-09-28T00:16:12.180Z,21.20
2016-09-28T00:17:12.913Z,21.20
2016-09-28T00:18:11.783Z,21.20
2016-09-28T00:19:12.549Z,21.20
2016-09-28T00:20:14.461Z,21.10
2016-09-28T00:21:11.483Z,21.20
2016-09-28T00:22:13.185Z,21.10
2016-09-28T00:23:11.083Z,21.20
2016-09-28T00:24:11.670Z,21.20
2016-09-28T00:25:11.740Z,21.10
2016-09-28T00:26:12.360Z,21.10
2016-09-28T00:27:12.054Z,21.10
2016-09-28T00:28:11.076Z,21.10
2016-09-28T00:29:11.071Z,21.10
2016-09-28T00:30:11.179Z,21.10
2016-09-28T00:31:11.971Z,21.10
2016-09-28T00:32:12.426Z,21.10
2016-09-28T00:33:11.503Z,21.10
2016-09-28T00:34:11.941Z,21.10
2016-09-28T00:35:12.610Z,21.10
2016-09-28T00:36:11.637Z,21.10
2016-09-28T00:37:11.640Z,21.10
2016-09-28T00:38:11.635Z,21.10
2016-09-28T00:39:12.195Z,21.10
2016-09-28T00:40:12.289Z,21.10
2016-09-28T00:41:11.982Z,21.10
2016-09-28T00:42:12.098Z,21.20
2016-09-28T00:43:11.223Z,21.10
2016-09-28T00:44:11.145Z,21.10
2016-09-28T00:45:11.090Z,21.10
2016-09-28T00:46:10.969Z,21.10
2016-09-28T00:47:10.985Z,21.10
2016-09-28T00:48:11.927Z,21.10
2016-09-28T00:49:13.539Z,21.10
2016-09-28T00:50:09.437Z,21.10
2016-09-28T00:51:10.265Z,21.20
2016-09-28T00:52:12.344Z,21.20
2016-09-28T00:53:09.655Z,21.20
2016-09-28T00:54:11.874Z,21.10
2016-09-28T00:55:14.259Z,21.20
2016-09-28T00:56:11.341Z,21.20
2016-09-28T00:57:11.302Z,21.10
2016-09-28T00:58:12.000Z,21.10
2016-09-28T00:59:11.568Z,21.20
2016-09-28T01:00:13.194Z,21.20
2016-09-28T01:01:12.569Z,21.20
2016-09-28T01:02:12.144Z,21.10
2016-09-28T01:03:15.231Z,21.10
2016-09-28T01:04:11.405Z,21.10
2016-09-28T01:05:11.407Z,21.10
2016-09-28T01:06:13.738Z,21.10
2016-09-28T01:07:12.385Z,21.10
2016-09-28T01:08:11.640Z,21.10
2016-09-28T01:09:14.205Z,21.10
2016-09-28T01:10:12.114Z,21.10
2016-09-28T01:11:11.752Z,21.10
2016-09-28T01:12:12.403Z,21.20
2016-09-28T01:13:11.544Z,21.10
2016-09-28T01:14:12.338Z,21.10
2016-09-28T01:15:13.780Z,21.10
2016-09-28T01:16:13.122Z,21.10
2016-09-28T01:17:12.885Z,21.10
2016-09-28T01:18:13.366Z,21.10
2016-09-28T01:19:11.117Z,21.10
2016-09-28T01:20:14.181Z,21.10
2016-09-28T01:21:11.496Z,21.10
2016-09-28T01:22:13.672Z,21.10
2016-09-28T01:23:12.455Z,21.10
2016-09-28T01:24:12.207Z,21.10
2016-09-28T01:25:12.507Z,21.10
2016-09-28T01:26:13.893Z,21.10
2016-09-28T01:27:14.427Z,21.10
2016-09-28T01:28:12.704Z,21.10
2016-09-28T01:29:11.595Z,21.10
2016-09-28T01:30:11.696Z,21.10
2016-09-28T01:31:14.528Z,21.10
2016-09-28T01:32:13.204Z,21.10
2016-09-28T01:33:11.990Z,21.10
2016-09-28T01:34:12.862Z,21.20
2016-09-28T01:35:12.663Z,21.10
2016-09-28T01:36:11.649Z,21.10
2016-09-28T01:37:12.827Z,21.10
2016-09-28T01:38:13.337Z,21.20
2016-09-28T01:39:13.069Z,21.10
2016-09-28T01:40:11.767Z,21.10
2016-09-28T01:41:13.347Z,21.10
2016-09-28T01:42:11.613Z,21.10
2016-09-28T01:43:11.700Z,21.10
2016-09-28T01:44:13.217Z,21.20
2016-09-28T01:45:13.603Z,21.10
2016-09-28T01:46:12.186Z,21.10
2016-09-28T01:47:09.009Z,21.20
2016-09-28T01:48:14.078Z,21.10
2016-09-28T01:49:11.187Z,21.10
2016-09-28T01:50:11.801Z,21.10
2016-09-28T01:51:12.955Z,21.20
2016-09-28T01:52:11.414Z,21.10
2016-09-28T01:53:13.651Z,21.20
2016-09-28T01:54:13.025Z,21.10
2016-09-28T01:55:12.562Z,21.10
2016-09-28T01:56:12.881Z,21.20
2016-09-28T01:57:12.843Z,21.10
2016-09-28T01:58:12.480Z,21.10
2016-09-28T01:59:11.629Z,21.10
2016-09-28T02:00:14.002Z,21.10
2016-09-28T02:01:14.954Z,21.20
2016-09-28T02:02:11.850Z,21.10
2016-09-28T02:03:12.293Z,21.20
2016-09-28T02:04:11.414Z,21.10
2016-09-28T02:05:13.885Z,21.20
2016-09-28T02:06:13.030Z,21.20
2016-09-28T02:07:11.935Z,21.20
2016-09-28T02:08:09.703Z,21.10
2016-09-28T02:09:11.373Z,21.10
2016-09-28T02:10:13.263Z,21.20
2016-09-28T02:11:08.996Z,21.20
2016-09-28T02:12:14.113Z,21.10
2016-09-28T02:13:11.727Z,21.10
2016-09-28T02:14:11.720Z,21.20
2016-09-28T02:15:12.202Z,21.20
2016-09-28T02:16:13.099Z,21.10
2016-09-28T02:17:11.864Z,21.10
2016-09-28T02:18:12.933Z,21.10
2016-09-28T02:19:11.915Z,21.10
2016-09-28T02:20:13.121Z,21.10
2016-09-28T02:21:10.226Z,21.20
2016-09-28T02:22:11.252Z,21.10
2016-09-28T02:23:11.186Z,21.10
2016-09-28T02:24:11.681Z,21.20
2016-09-28T02:25:11.891Z,21.10
2016-09-28T02:26:12.410Z,21.20
2016-09-28T02:27:11.561Z,21.10
2016-09-28T02:28:11.634Z,21.10
2016-09-28T02:29:11.611Z,21.20
2016-09-28T02:30:13.330Z,21.10
2016-09-28T02:31:13.536Z,21.10
2016-09-28T02:32:12.501Z,21.10
2016-09-28T02:33:12.868Z,21.10
2016-09-28T02:34:11.971Z,21.10
2016-09-28T02:35:11.887Z,21.10
2016-09-28T02:36:11.942Z,21.10
2016-09-28T02:37:13.099Z,21.10
2016-09-28T02:38:13.996Z,21.20
2016-09-28T02:39:12.832Z,21.20
2016-09-28T02:40:12.899Z,21.10
2016-09-28T02:41:12.894Z,21.10
2016-09-28T02:42:12.386Z,21.10
2016-09-28T02:43:13.392Z,21.10
2016-09-28T02:44:09.848Z,21.10
2016-09-28T02:45:08.920Z,21.20
2016-09-28T02:46:11.579Z,21.10
2016-09-28T02:47:11.664Z,21.10
2016-09-28T02:48:11.825Z,21.10
2016-09-28T02:49:12.693Z,21.20
2016-09-28T02:50:09.947Z,21.20
2016-09-28T02:51:11.834Z,21.20
2016-09-28T02:52:12.693Z,21.20
2016-09-28T02:53:11.810Z,21.20
2016-09-28T02:54:12.522Z,21.20
2016-09-28T02:55:11.526Z,21.20
2016-09-28T02:56:11.441Z,21.10
2016-09-28T02:57:11.569Z,21.20
2016-09-28T02:58:13.379Z,21.20
2016-09-28T02:59:11.880Z,21.20
2016-09-28T03:00:09.674Z,21.20
2016-09-28T03:01:11.302Z,21.10
2016-09-28T03:02:11.880Z,21.10
2016-09-28T03:03:10.335Z,21.20
2016-09-28T03:04:11.872Z,21.10
2016-09-28T03:05:11.031Z,21.10
2016-09-28T03:06:14.927Z,21.10
2016-09-28T03:07:12.772Z,21.20
2016-09-28T03:08:12.312Z,21.20
2016-09-28T03:09:11.901Z,21.20
2016-09-28T03:10:12.492Z,21.10
2016-09-28T03:11:11.544Z,21.10
2016-09-28T03:12:11.547Z,21.10
2016-09-28T03:13:09.752Z,21.20
2016-09-28T03:14:11.310Z,21.20
2016-09-28T03:15:11.716Z,21.20
2016-09-28T03:16:12.204Z,21.20
2016-09-28T03:17:12.431Z,21.20
2016-09-28T03:18:11.581Z,21.20
2016-09-28T03:19:11.613Z,21.20
2016-09-28T03:20:13.284Z,21.20
2016-09-28T03:21:12.392Z,21.20
2016-09-28T03:22:12.112Z,21.20
2016-09-28T03:23:11.154Z,21.20
2016-09-28T03:24:12.589Z,21.10
2016-09-28T03:25:11.519Z,21.10
2016-09-28T03:26:13.866Z,21.20
2016-09-28T03:27:13.032Z,21.20
2016-09-28T03:28:11.033Z,21.20
2016-09-28T03:29:12.455Z,21.20
2016-09-28T03:30:11.935Z,21.20
2016-09-28T03:31:11.111Z,21.20
2016-09-28T03:32:11.132Z,21.20
2016-09-28T03:33:11.804Z,21.20
2016-09-28T03:34:12.677Z,21.20
2016-09-28T03:35:11.473Z,21.20
2016-09-28T03:36:12.283Z,21.10
2016-09-28T03:37:12.104Z,21.20
2016-09-28T03:38:12.417Z,21.20
2016-09-28T03:39:11.578Z,21.10
2016-09-28T03:40:11.832Z,21.10
2016-09-28T03:41:12.865Z,21.10
2016-09-28T03:42:13.324Z,21.20
2016-09-28T03:43:11.879Z,21.10
2016-09-28T03:44:12.600Z,21.10
2016-09-28T03:45:13.447Z,21.10
2016-09-28T03:46:12.433Z,21.20
2016-09-28T03:47:11.807Z,21.10
2016-09-28T03:48:12.415Z,21.10
2016-09-28T03:49:11.871Z,21.10
2016-09-28T03:50:10.156Z,21.20
2016-09-28T03:51:12.085Z,21.20
2016-09-28T03:52:09.635Z,21.10
2016-09-28T03:53:12.502Z,21.10
2016-09-28T03:54:09.705Z,21.20
2016-09-28T03:55:11.945Z,21.10
2016-09-28T03:56:13.233Z,21.10
2016-09-28T03:57:13.154Z,21.10
2016-09-28T03:58:11.564Z,21.10
2016-09-28T03:59:12.183Z,21.10
2016-09-28T04:00:11.809Z,21.20
2016-09-28T04:01:12.293Z,21.20
2016-09-28T04:02:09.115Z,21.20
2016-09-28T04:03:12.211Z,21.10
2016-09-28T04:04:11.397Z,21.10
2016-09-28T04:05:09.669Z,21.10
2016-09-28T04:06:12.166Z,21.10
2016-09-28T04:07:12.720Z,21.20
2016-09-28T04:08:09.506Z,21.20
2016-09-28T04:09:11.856Z,21.20
2016-09-28T04:10:11.912Z,21.10
2016-09-28T04:11:11.581Z,21.10
2016-09-28T04:12:11.532Z,21.10
2016-09-28T04:13:12.070Z,21.10
2016-09-28T04:14:11.583Z,21.10
2016-09-28T04:15:12.161Z,21.10
2016-09-28T04:16:11.203Z,21.10
2016-09-28T04:17:12.889Z,21.20
2016-09-28T04:18:14.609Z,21.10
2016-09-28T04:19:11.778Z,21.10
2016-09-28T04:20:11.696Z,21.10
2016-09-28T04:21:11.782Z,21.10
2016-09-28T04:22:11.859Z,21.10
2016-09-28T04:23:12.397Z,21.20
2016-09-28T04:24:12.464Z,21.10
2016-09-28T04:25:13.022Z,21.10
2016-09-28T04:26:15.308Z,21.10
2016-09-28T04:27:13.674Z,21.10
2016-09-28T04:28:11.712Z,21.10
2016-09-28T04:29:10.163Z,21.20
2016-09-28T04:30:09.409Z,21.10
2016-09-28T04:31:12.584Z,21.10
2016-09-28T04:32:11.785Z,21.10
2016-09-28T04:33:13.264Z,21.10
2016-09-28T04:34:11.336Z,21.10
2016-09-28T04:35:11.920Z,21.10
2016-09-28T04:36:09.667Z,21.10
2016-09-28T04:37:12.493Z,21.10
2016-09-28T04:38:11.461Z,21.10
2016-09-28T04:39:11.425Z,21.10
2016-09-28T04:40:11.896Z,21.10
2016-09-28T04:41:12.287Z,21.20
2016-09-28T04:42:13.151Z,21.10
2016-09-28T04:43:11.199Z,21.10
2016-09-28T04:44:13.953Z,21.10
2016-09-28T04:45:12.528Z,21.10
2016-09-28T04:46:12.081Z,21.10
2016-09-28T04:47:11.205Z,21.10
2016-09-28T04:48:11.167Z,21.10
2016-09-28T04:49:12.944Z,21.10
2016-09-28T04:50:11.844Z,21.10
2016-09-28T04:51:11.804Z,21.10
2016-09-28T04:52:11.667Z,21.10
2016-09-28T04:53:11.642Z,21.10
2016-09-28T04:54:12.113Z,21.20
2016-09-28T04:55:11.721Z,21.10
2016-09-28T04:56:11.782Z,21.10
2016-09-28T04:57:11.828Z,21.10
2016-09-28T04:58:11.873Z,21.10
2016-09-28T04:59:11.752Z,21.10
2016-09-28T05:00:12.781Z,21.10
2016-09-28T05:01:12.615Z,21.10
2016-09-28T05:02:12.380Z,21.10
2016-09-28T05:03:12.405Z,21.10
2016-09-28T05:04:12.229Z,21.10
2016-09-28T05:05:12.906Z,21.10
2016-09-28T05:06:12.444Z,21.10
2016-09-28T05:07:13.169Z,21.10
2016-09-28T05:08:11.839Z,21.10
2016-09-28T05:09:13.462Z,21.10
2016-09-28T05:10:11.371Z,21.10
2016-09-28T05:11:12.207Z,21.10
2016-09-28T05:12:11.405Z,21.10
2016-09-28T05:13:10.142Z,21.10
2016-09-28T05:14:11.961Z,21.10
2016-09-28T05:15:12.841Z,21.10
2016-09-28T05:16:12.587Z,21.10
2016-09-28T05:17:12.319Z,21.10
2016-09-28T05:18:11.835Z,21.10
2016-09-28T05:19:09.521Z,21.10
2016-09-28T05:20:12.243Z,21.10
2016-09-28T05:21:08.913Z,21.10
2016-09-28T05:22:12.291Z,21.10
2016-09-28T05:23:11.431Z,21.10
2016-09-28T05:24:12.937Z,21.20
2016-09-28T05:25:12.363Z,21.20
2016-09-28T05:26:12.402Z,21.20
2016-09-28T05:27:08.704Z,21.20
2016-09-28T05:28:11.622Z,21.20
2016-09-28T05:29:12.183Z,21.20
2016-09-28T05:30:12.631Z,21.20
2016-09-28T05:31:13.496Z,21.20
2016-09-28T05:32:11.361Z,21.20
2016-09-28T05:33:11.292Z,21.20
2016-09-28T05:34:11.373Z,21.20
2016-09-28T05:35:11.771Z,21.20
2016-09-28T05:36:12.819Z,21.20
2016-09-28T05:37:11.178Z,21.10
2016-09-28T05:38:11.230Z,21.10
2016-09-28T05:39:11.830Z,21.10
2016-09-28T05:40:09.604Z,21.10
2016-09-28T05:41:13.082Z,21.10
2016-09-28T05:42:11.828Z,21.10
2016-09-28T05:43:11.830Z,21.10
2016-09-28T05:44:11.671Z,21.10
2016-09-28T05:45:12.096Z,21.10
2016-09-28T05:46:12.022Z,21.10
2016-09-28T05:47:11.149Z,21.10
2016-09-28T05:48:12.039Z,21.10
2016-09-28T05:49:09.015Z,21.10
2016-09-28T05:50:14.048Z,21.10
2016-09-28T05:51:11.826Z,21.10
2016-09-28T05:52:12.574Z,21.10
2016-09-28T05:53:12.155Z,21.10
2016-09-28T05:54:09.558Z,21.10
2016-09-28T05:55:11.904Z,21.10
2016-09-28T05:56:11.863Z,21.10
2016-09-28T05:57:11.889Z,21.10
2016-09-28T05:58:11.970Z,21.10
2016-09-28T05:59:12.660Z,21.10
2016-09-28T06:00:11.658Z,21.10
2016-09-28T06:01:10.040Z,21.10
2016-09-28T06:02:12.113Z,21.10
2016-09-28T06:03:12.732Z,21.10
2016-09-28T06:04:13.491Z,21.10
2016-09-28T06:05:12.065Z,21.10
2016-09-28T06:06:11.645Z,21.10
2016-09-28T06:07:12.602Z,21.10
2016-09-28T06:08:12.144Z,21.20
2016-09-28T06:09:11.857Z,21.20
2016-09-28T06:10:12.761Z,21.20
2016-09-28T06:11:12.286Z,21.20
2016-09-28T06:12:11.829Z,21.20
2016-09-28T06:13:12.451Z,21.20
2016-09-28T06:14:11.770Z,21.20
2016-09-28T06:15:12.623Z,21.20
2016-09-28T06:16:12.396Z,21.20
2016-09-28T06:17:11.591Z,21.20
2016-09-28T06:18:11.561Z,21.20
2016-09-28T06:19:12.674Z,21.20
2016-09-28T06:20:12.821Z,21.10
2016-09-28T06:21:11.793Z,21.10
2016-09-28T06:22:11.961Z,21.10
2016-09-28T06:23:12.419Z,21.10
2016-09-28T06:24:13.350Z,21.10
2016-09-28T06:25:11.304Z,21.10
2016-09-28T06:26:09.775Z,21.10
2016-09-28T06:27:12.214Z,21.10
2016-09-28T06:28:11.632Z,21.00
2016-09-28T06:29:11.719Z,21.00
2016-09-28T06:30:13.483Z,21.00
2016-09-28T06:31:12.040Z,20.60
2016-09-28T06:32:09.707Z,20.30
2016-09-28T06:33:11.198Z,19.90
2016-09-28T06:34:12.441Z,19.50
2016-09-28T06:35:11.430Z,19.20
2016-09-28T06:36:13.384Z,19.10
2016-09-28T06:37:11.950Z,18.80
2016-09-28T06:38:11.783Z,18.80
2016-09-28T06:39:12.265Z,18.70
2016-09-28T06:40:11.413Z,18.60
2016-09-28T06:41:11.570Z,18.50
2016-09-28T06:42:12.441Z,18.30
2016-09-28T06:43:10.104Z,18.20
2016-09-28T06:44:12.871Z,18.10
2016-09-28T06:45:12.304Z,17.90
2016-09-28T06:46:11.234Z,18.00
2016-09-28T06:47:11.304Z,18.20
2016-09-28T06:48:11.641Z,18.40
2016-09-28T06:49:11.621Z,18.60
2016-09-28T06:50:11.563Z,18.80
2016-09-28T06:51:11.722Z,19.00
2016-09-28T06:52:12.225Z,19.20
2016-09-28T06:53:11.974Z,19.30
2016-09-28T06:54:11.013Z,19.50
2016-09-28T06:55:11.158Z,19.50
2016-09-28T06:56:11.606Z,19.60
2016-09-28T06:57:12.737Z,19.80
2016-09-28T06:58:12.089Z,19.80
2016-09-28T06:59:11.357Z,19.90
2016-09-28T07:00:10.165Z,20.00
2016-09-28T07:01:13.401Z,20.00
2016-09-28T07:02:12.014Z,20.10
2016-09-28T07:03:11.677Z,20.10
2016-09-28T07:04:11.798Z,20.20
2016-09-28T07:05:12.841Z,20.20
2016-09-28T07:06:10.304Z,20.20
2016-09-28T07:07:12.762Z,20.30
2016-09-28T07:08:11.711Z,20.30
2016-09-28T07:09:12.262Z,20.30
2016-09-28T07:10:12.055Z,20.30
2016-09-28T07:11:11.505Z,20.40
2016-09-28T07:12:11.588Z,20.40
2016-09-28T07:13:12.176Z,20.40
2016-09-28T07:14:09.823Z,20.40
2016-09-28T07:15:11.267Z,20.40
2016-09-28T07:16:09.849Z,20.40
2016-09-28T07:17:12.849Z,20.50
2016-09-28T07:18:12.581Z,20.50
2016-09-28T07:19:12.127Z,20.50
2016-09-28T07:20:11.242Z,20.50
2016-09-28T07:21:11.315Z,20.50
2016-09-28T07:22:09.099Z,20.50
2016-09-28T07:23:10.161Z,20.50
2016-09-28T07:24:12.154Z,20.60
2016-09-28T07:25:11.260Z,20.50
2016-09-28T07:26:11.873Z,20.60
2016-09-28T07:27:11.979Z,20.60
2016-09-28T07:28:12.964Z,20.60
2016-09-28T07:29:10.266Z,20.60
2016-09-28T07:30:11.775Z,20.60
2016-09-28T07:31:12.480Z,20.60
2016-09-28T07:32:12.151Z,20.60
2016-09-28T07:33:11.229Z,20.60
2016-09-28T07:34:11.731Z,20.70
2016-09-28T07:35:12.258Z,20.60
2016-09-28T07:36:11.346Z,20.70
2016-09-28T07:37:09.678Z,20.70
2016-09-28T07:38:11.331Z,20.70
2016-09-28T07:39:11.890Z,20.70
2016-09-28T07:40:12.514Z,20.70
2016-09-28T07:41:11.710Z,20.70
2016-09-28T07:42:12.279Z,20.70
2016-09-28T07:43:11.339Z,20.70
2016-09-28T07:44:11.414Z,20.70
2016-09-28T07:45:11.329Z,20.70
2016-09-28T07:46:13.080Z,20.70
2016-09-28T07:47:11.009Z,20.70
2016-09-28T07:48:12.081Z,20.70
2016-09-28T07:49:11.920Z,20.70
2016-09-28T07:50:12.920Z,20.70
2016-09-28T07:51:12.551Z,20.70
2016-09-28T07:52:11.620Z,20.70
2016-09-28T07:53:12.174Z,20.80
2016-09-28T07:54:11.378Z,20.70
2016-09-28T07:55:11.880Z,20.80
2016-09-28T07:56:09.695Z,20.80
2016-09-28T07:57:11.229Z,20.80
2016-09-28T07:58:12.153Z,20.80
2016-09-28T07:59:11.130Z,20.80
2016-09-28T08:00:11.231Z,20.80
2016-09-28T08:01:09.902Z,20.80
2016-09-28T08:02:11.921Z,20.80
2016-09-28T08:03:12.292Z,20.80
2016-09-28T08:04:11.343Z,20.80
2016-09-28T08:05:12.132Z,20.80
2016-09-28T08:06:11.263Z,20.80
2016-09-28T08:07:11.259Z,20.80
2016-09-28T08:08:11.875Z,20.80
2016-09-28T08:09:15.533Z,20.80
2016-09-28T08:10:11.718Z,20.80
2016-09-28T08:11:11.996Z,20.80
2016-09-28T08:12:11.972Z,20.80
2016-09-28T08:13:11.361Z,20.80
2016-09-28T08:14:08.574Z,20.90
2016-09-28T08:15:11.950Z,20.80
2016-09-28T08:16:13.856Z,20.90
2016-09-28T08:17:12.520Z,20.90
2016-09-28T08:18:12.156Z,20.90
2016-09-28T08:19:11.858Z,20.90
2016-09-28T08:20:11.892Z,20.90
2016-09-28T08:21:12.457Z,20.90
2016-09-28T08:22:11.863Z,20.90
2016-09-28T08:23:11.296Z,20.90
2016-09-28T08:24:11.143Z,20.90
2016-09-28T08:25:12.842Z,20.90
2016-09-28T08:26:12.402Z,20.90
2016-09-28T08:27:12.710Z,20.90
2016-09-28T08:28:11.696Z,20.90
2016-09-28T08:29:12.151Z,20.90
2016-09-28T08:30:13.130Z,20.90
2016-09-28T08:31:12.601Z,20.90
2016-09-28T08:32:13.249Z,20.90
2016-09-28T08:33:11.697Z,20.90
2016-09-28T08:34:13.106Z,20.90
2016-09-28T08:35:11.651Z,20.90
2016-09-28T08:36:11.906Z,20.90
2016-09-28T08:37:11.443Z,20.90
2016-09-28T08:38:13.304Z,20.90
2016-09-28T08:39:12.311Z,20.90
2016-09-28T08:40:12.911Z,20.90
2016-09-28T08:41:11.836Z,20.90
2016-09-28T08:42:11.945Z,20.90
2016-09-28T08:43:11.913Z,20.90
2016-09-28T08:44:12.515Z,20.90
2016-09-28T08:45:12.171Z,20.90
2016-09-28T08:46:11.239Z,20.90
2016-09-28T08:47:11.231Z,20.90
2016-09-28T08:48:12.386Z,20.90
2016-09-28T08:49:08.744Z,20.90
2016-09-28T08:50:11.701Z,20.90
2016-09-28T08:51:11.860Z,20.90
2016-09-28T08:52:12.491Z,21.00
2016-09-28T08:53:12.112Z,21.00
2016-09-28T08:54:11.015Z,21.00
2016-09-28T08:55:10.976Z,21.00
2016-09-28T08:56:12.350Z,21.00
2016-09-28T08:57:09.747Z,21.00
2016-09-28T08:58:11.286Z,21.00
2016-09-28T08:59:11.957Z,21.00
2016-09-28T09:00:13.834Z,21.00
2016-09-28T09:01:11.773Z,21.00
2016-09-28T09:02:13.265Z,21.00
2016-09-28T09:03:11.130Z,21.00
2016-09-28T09:04:13.036Z,21.00
2016-09-28T09:05:11.604Z,21.00
2016-09-28T09:06:12.253Z,21.00
2016-09-28T09:07:11.240Z,21.00
2016-09-28T09:08:11.223Z,21.00
2016-09-28T09:09:13.103Z,21.00
2016-09-28T09:10:11.156Z,21.00
2016-09-28T09:11:09.770Z,21.00
2016-09-28T09:12:09.867Z,21.00
2016-09-28T09:13:11.426Z,21.00
2016-09-28T09:14:11.500Z,21.00
2016-09-28T09:15:12.155Z,21.00
2016-09-28T09:16:11.245Z,21.00
2016-09-28T09:17:09.595Z,21.00
2016-09-28T09:18:11.206Z,21.00
2016-09-28T09:19:12.034Z,21.00
2016-09-28T09:20:11.850Z,21.00
2016-09-28T09:21:12.605Z,21.00
2016-09-28T09:22:12.245Z,21.00
2016-09-28T09:23:11.782Z,21.00
2016-09-28T09:24:12.470Z,21.10
2016-09-28T09:25:12.233Z,21.00
2016-09-28T09:26:11.281Z,21.00
2016-09-28T09:27:13.013Z,21.00
2016-09-28T09:28:11.823Z,21.00
2016-09-28T09:29:12.225Z,21.10
2016-09-28T09:30:12.097Z,21.00
2016-09-28T09:31:11.098Z,21.00
2016-09-28T09:32:11.683Z,21.10
2016-09-28T09:33:12.280Z,21.10
2016-09-28T09:34:11.860Z,21.10
2016-09-28T09:35:11.838Z,21.10
2016-09-28T09:36:11.905Z,21.10
2016-09-28T09:37:11.714Z,21.00
2016-09-28T09:38:12.303Z,21.10
2016-09-28T09:39:11.847Z,21.10
2016-09-28T09:40:11.848Z,21.10
2016-09-28T09:41:12.127Z,21.10
2016-09-28T09:42:11.711Z,21.10
2016-09-28T09:43:13.006Z,21.10
2016-09-28T09:44:12.508Z,21.10
2016-09-28T09:45:12.600Z,21.10
2016-09-28T09:46:11.724Z,21.10
2016-09-28T09:47:14.677Z,21.10
2016-09-28T09:48:11.578Z,21.10
2016-09-28T09:49:11.588Z,21.10
2016-09-28T09:50:11.449Z,21.10
2016-09-28T09:51:12.186Z,21.10
2016-09-28T09:52:11.406Z,21.10
2016-09-28T09:53:13.543Z,21.10
2016-09-28T09:54:10.182Z,21.10
2016-09-28T09:55:12.204Z,21.10
2016-09-28T09:56:09.768Z,21.10
2016-09-28T09:57:09.049Z,21.10
2016-09-28T09:58:11.608Z,21.10
2016-09-28T09:59:11.680Z,21.10
2016-09-28T10:00:13.426Z,21.10
2016-09-28T10:01:11.364Z,21.10
2016-09-28T10:02:11.454Z,21.10
2016-09-28T10:03:11.985Z,21.10
2016-09-28T10:04:12.729Z,21.10
2016-09-28T10:05:11.726Z,21.10
2016-09-28T10:06:14.404Z,21.10
2016-09-28T10:07:12.133Z,21.10
2016-09-28T10:08:11.136Z,21.10
2016-09-28T10:09:11.168Z,21.10
2016-09-28T10:10:11.125Z,21.10
2016-09-28T10:11:11.108Z,21.10
2016-09-28T10:12:11.134Z,21.10
2016-09-28T10:13:11.668Z,21.10
2016-09-28T10:14:10.434Z,21.10
2016-09-28T10:15:11.872Z,21.10
2016-09-28T10:16:11.758Z,21.10
2016-09-28T10:17:12.362Z,21.10
2016-09-28T10:18:12.016Z,21.10
2016-09-28T10:19:10.961Z,21.10
2016-09-28T10:20:11.007Z,21.10
2016-09-28T10:21:12.442Z,21.10
2016-09-28T10:22:12.148Z,21.10
2016-09-28T10:23:11.278Z,21.10
2016-09-28T10:24:11.388Z,21.10
2016-09-28T10:25:09.206Z,21.10
2016-09-28T10:26:11.507Z,21.10
2016-09-28T10:27:11.589Z,21.10
2016-09-28T10:28:13.178Z,21.10
2016-09-28T10:29:11.173Z,21.10
2016-09-28T10:30:11.795Z,21.10
2016-09-28T10:31:11.698Z,21.10
2016-09-28T10:32:12.125Z,21.10
2016-09-28T10:33:08.932Z,21.20
2016-09-28T10:34:11.445Z,21.10
2016-09-28T10:35:11.666Z,21.10
2016-09-28T10:36:12.492Z,21.10
2016-09-28T10:37:10.105Z,21.20
2016-09-28T10:38:12.032Z,21.20
2016-09-28T10:39:11.197Z,21.20
2016-09-28T10:40:11.945Z,21.20
2016-09-28T10:41:12.642Z,21.20
2016-09-28T10:42:12.226Z,21.20
2016-09-28T10:43:11.286Z,21.20
2016-09-28T10:44:11.664Z,21.20
2016-09-28T10:45:11.772Z,21.20
2016-09-28T10:46:12.106Z,21.20
2016-09-28T10:47:12.722Z,21.20
2016-09-28T10:48:13.467Z,21.20
2016-09-28T10:49:11.510Z,21.20
2016-09-28T10:50:13.165Z,21.20
2016-09-28T10:51:11.051Z,21.20
2016-09-28T10:52:11.724Z,21.20
2016-09-28T10:53:11.049Z,21.20
2016-09-28T10:54:11.721Z,21.20
2016-09-28T10:55:12.085Z,21.20
2016-09-28T10:56:11.715Z,21.20
2016-09-28T10:57:11.795Z,21.20
2016-09-28T10:58:12.397Z,21.20
2016-09-28T10:59:11.604Z,21.20
2016-09-28T11:00:11.526Z,21.20
2016-09-28T11:01:12.220Z,21.20
2016-09-28T11:02:11.679Z,21.20
2016-09-28T11:03:11.736Z,21.20
2016-09-28T11:04:11.752Z,21.20
2016-09-28T11:05:11.707Z,21.20
2016-09-28T11:06:09.538Z,21.20
2016-09-28T11:07:12.636Z,21.20
2016-09-28T11:08:09.055Z,21.20
2016-09-28T11:09:11.484Z,21.20
2016-09-28T11:10:11.519Z,21.20
2016-09-28T11:11:12.077Z,21.20
2016-09-28T11:12:11.024Z,21.20
2016-09-28T11:13:11.997Z,21.20
2016-09-28T11:14:11.765Z,21.20
2016-09-28T11:15:12.264Z,21.20
2016-09-28T11:16:09.141Z,21.20
2016-09-28T11:17:11.586Z,21.20
2016-09-28T11:18:10.194Z,21.20
2016-09-28T11:19:11.588Z,21.20
2016-09-28T11:20:11.612Z,21.20
2016-09-28T11:21:11.570Z,21.20
2016-09-28T11:22:11.623Z,21.20
2016-09-28T11:23:11.652Z,21.20
2016-09-28T11:24:13.429Z,21.20
2016-09-28T11:25:12.113Z,21.20
2016-09-28T11:26:12.694Z,21.20
2016-09-28T11:27:12.073Z,21.20
2016-09-28T11:28:11.851Z,21.20
2016-09-28T11:29:11.839Z,21.20
2016-09-28T11:30:11.477Z,21.20
2016-09-28T11:31:11.504Z,21.20
2016-09-28T11:32:13.294Z,21.30
2016-09-28T11:33:11.198Z,21.20
2016-09-28T11:34:11.323Z,21.20
2016-09-28T11:35:11.842Z,21.20
2016-09-28T11:36:12.265Z,21.30
2016-09-28T11:37:11.415Z,21.20
2016-09-28T11:38:13.248Z,21.30
2016-09-28T11:39:12.239Z,21.30
2016-09-28T11:40:11.904Z,21.30
2016-09-28T11:41:11.849Z,21.20
2016-09-28T11:42:11.929Z,21.30
2016-09-28T11:43:12.053Z,21.30
2016-09-28T11:44:11.954Z,21.30
2016-09-28T11:45:11.026Z,21.30
2016-09-28T11:46:12.834Z,21.30
2016-09-28T11:47:11.812Z,21.30
2016-09-28T11:48:12.468Z,21.30
2016-09-28T11:49:12.004Z,21.30
2016-09-28T11:50:11.168Z,21.30
2016-09-28T11:51:12.010Z,21.30
2016-09-28T11:52:11.660Z,21.30
2016-09-28T11:53:11.717Z,21.30
2016-09-28T11:54:12.425Z,21.30
2016-09-28T11:55:11.420Z,21.30
2016-09-28T11:56:11.867Z,21.30
2016-09-28T11:57:11.728Z,21.30
2016-09-28T11:58:11.769Z,21.30
2016-09-28T11:59:12.473Z,21.30
2016-09-28T12:00:13.303Z,21.30
2016-09-28T12:01:11.697Z,21.30
2016-09-28T12:02:11.663Z,21.30
2016-09-28T12:03:11.722Z,21.30
2016-09-28T12:04:11.817Z,21.30
2016-09-28T12:05:12.541Z,21.30
2016-09-28T12:06:10.254Z,21.30
2016-09-28T12:07:12.098Z,21.30
2016-09-28T12:08:11.519Z,21.30
2016-09-28T12:09:11.437Z,21.30
2016-09-28T12:10:11.591Z,21.30
2016-09-28T12:11:13.558Z,21.30
2016-09-28T12:12:12.143Z,21.30
2016-09-28T12:13:08.316Z,21.30
2016-09-28T12:14:14.414Z,21.30
2016-09-28T12:15:11.939Z,21.30
2016-09-28T12:16:11.810Z,21.30
2016-09-28T12:17:12.248Z,21.30
2016-09-28T12:18:11.754Z,21.30
2016-09-28T12:19:11.655Z,21.30
2016-09-28T12:20:11.635Z,21.30
2016-09-28T12:21:12.335Z,21.30
2016-09-28T12:22:12.145Z,21.30
2016-09-28T12:23:12.486Z,21.30
2016-09-28T12:24:12.069Z,21.30
2016-09-28T12:25:12.348Z,21.30
2016-09-28T12:26:11.787Z,21.30
2016-09-28T12:27:13.463Z,21.30
2016-09-28T12:28:12.268Z,21.30
2016-09-28T12:29:11.255Z,21.30
2016-09-28T12:30:11.239Z,21.30
2016-09-28T12:31:12.878Z,21.30
2016-09-28T12:32:12.585Z,21.30
2016-09-28T12:33:08.969Z,21.30
2016-09-28T12:34:09.755Z,21.30
2016-09-28T12:35:11.390Z,21.30
2016-09-28T12:36:11.965Z,21.30
2016-09-28T12:37:12.648Z,21.30
2016-09-28T12:38:11.594Z,21.30
2016-09-28T12:39:12.292Z,21.30
2016-09-28T12:40:11.824Z,21.30
2016-09-28T12:41:13.501Z,21.30
2016-09-28T12:42:12.345Z,21.30
2016-09-28T12:43:10.028Z,21.30
2016-09-28T12:44:12.103Z,21.30
2016-09-28T12:45:11.759Z,21.30
2016-09-28T12:46:11.779Z,21.30
2016-09-28T12:47:11.774Z,21.30
2016-09-28T12:48:12.485Z,21.30
2016-09-28T12:49:11.689Z,21.30
2016-09-28T12:50:12.255Z,21.30
2016-09-28T12:51:11.308Z,21.30
2016-09-28T12:52:11.310Z,21.30